Главная страница
METAR-TAF:

METAR-TAF

Аэропорты :

Dansville Municipal Airport

Dansville, Нью-Йорк, США

широта: 42-34-10N, долгота: 077-42-52W, высота над уровнем моря: 201 м

Текущие метеонаблюдения

Эта сводка был подготовлена 42 минут назад, в 21:54 UTC
Ветер 8 Узел от юго-юго-восточный
Температура 9°C
Влажность 57%
Давление 1022 hPa
Видимость: 16.1 км
Сплошная облачность на высоте 12000 фута

METAR: KDSV 142154Z AUTO 15008KT 10SM OVC120 09/01 A3019 RMK AO2 SLP235 T00940006

Время: 17:36 (22:36 UTC)


TAF: отсутствует

Метеонаблюдения и прогнозы для более 4000 аэропортов (сводки METAR и TAF).

Имеющиеся станции представлены на карте желтыми и красными точками.

Чтобы увидеть название станции, наведите на нее мышь.

Затем щелкните, чтобы увидеть метеонаблюдения и метеопрогнозы.

Управление картой: чтобы увеличить масштаб, щелкните зеленые кнопки с черным крестиком; чтобы уменьшить масштаб, щелкните зеленую кнопку с тире; для просмотра соседних карт щелкайте зеленые стрелки.


METAR-TAF: